Time;durP1;ratioP1;P1;durP2;ratioP2;P2;SDS_P1;SDS_P2;PMS_P1;PMS_P2;Temp;Humidity;BMP_temperature;BMP_pressure;BME280_temperature;BME280_humidity;BME280_pressure;Samples;Min_cycle;Max_cycle;Signal;HPM_P1;HPM_P2
2021/08/28 00:02:08;;;;;;;;;;;;;;;15.57;72.18;100164.44;4862930;29;19928;-90
2021/08/28 00:04:35;;;;;;;;;;;;;;;15.59;72.20;100166.84;4878604;29;19924;-92
2021/08/28 00:07:02;;;;;;;;;;;;;;;15.56;72.28;100160.03;4879606;29;19959;-90
2021/08/28 00:09:28;;;;;;;;;;;;;;;15.56;72.14;100167.50;4878330;29;19924;-90
2021/08/28 00:11:53;;;;;;;;;;;;;;;15.54;72.17;100170.59;4879505;29;20402;-91
2021/08/28 00:14:20;;;;;;;;;;;;;;;15.47;72.63;100162.00;4878406;29;19959;-91
2021/08/28 00:16:46;;;;;;;;;;;;;;;15.48;72.28;100164.41;4858584;29;20607;-93
2021/08/28 00:19:12;;;;;;;;;;;;;;;15.46;72.18;100163.94;4843286;29;20022;-90
2021/08/28 00:21:38;;;;;;;;;;;;;;;15.45;72.39;100172.53;4858609;29;20010;-93
2021/08/28 00:24:04;;;;;;;;;;;;;;;15.42;72.45;100171.22;4827744;29;19949;-91
2021/08/28 00:26:30;;;;;;;;;;;;;;;15.40;72.52;100159.72;4843215;29;19959;-90
2021/08/28 00:28:57;;;;;;;;;;;;;;;15.35;72.82;100159.06;4843139;29;19970;-91
2021/08/28 00:31:23;;;;;;;;;;;;;;;15.32;72.78;100165.22;4858565;29;20041;-94
2021/08/28 00:33:50;;;;;;;;;;;;;;;15.32;72.53;100166.03;4843164;29;19924;-93
2021/08/28 00:36:15;;;;;;;;;;;;;;;15.35;72.21;100170.91;4843071;29;19931;-91
2021/08/28 00:38:41;;;;;;;;;;;;;;;15.37;72.11;100162.31;4812567;29;19947;-90
2021/08/28 00:41:07;;;;;;;;;;;;;;;15.37;71.99;100174.16;4858206;29;20326;-91
2021/08/28 00:43:33;;;;;;;;;;;;;;;15.39;71.62;100171.06;4843192;29;20299;-91
2021/08/28 00:45:59;;;;;;;;;;;;;;;15.41;71.65;100177.06;4812966;29;19935;-91
2021/08/28 00:48:26;;;;;;;;;;;;;;;15.39;71.57;100168.31;4827995;29;19963;-90
2021/08/28 00:50:53;;;;;;;;;;;;;;;15.36;71.76;100171.72;4842958;29;19971;-90
2021/08/28 00:53:19;;;;;;;;;;;;;;;15.32;71.85;100176.25;4861053;29;20385;-90
2021/08/28 00:55:46;;;;;;;;;;;;;;;15.32;71.86;100176.25;4877546;29;20072;-90
2021/08/28 00:58:13;;;;;;;;;;;;;;;15.36;71.56;100174.47;4877361;29;19934;-91
2021/08/28 01:00:47;;;;;;;;;;;;;;;15.37;71.63;100179.66;4877652;29;19924;-91
2021/08/28 01:03:18;;;;;;;;;;;;;;;15.36;71.57;100179.97;4877618;29;20006;-91
2021/08/28 01:05:57;;;;;;;;;;;;;;;15.38;71.40;100183.22;4877620;29;19927;-91
2021/08/28 01:08:35;;;;;;;;;;;;;;;15.36;71.29;100188.25;4877759;29;20497;-91
2021/08/28 01:11:38;;;;;;;;;;;;;;;15.28;71.70;100170.59;4844283;29;19924;-90
2021/08/28 01:14:06;;;;;;;;;;;;;;;15.26;71.66;100184.69;4862238;29;20457;-92
2021/08/28 01:16:42;;;;;;;;;;;;;;;15.24;71.89;100186.13;4877387;29;19924;-90
2021/08/28 01:19:15;;;;;;;;;;;;;;;15.27;71.35;100185.50;4877772;29;19962;-90
2021/08/28 01:21:42;;;;;;;;;;;;;;;15.31;71.42;100185.66;4877811;29;19923;-91
2021/08/28 01:24:41;;;;;;;;;;;;;;;15.28;71.43;100181.59;4803439;29;19921;-91
2021/08/28 01:27:42;;;;;;;;;;;;;;;15.25;71.30;100185.81;4792643;29;20032;-90
2021/08/28 01:30:13;;;;;;;;;;;;;;;15.18;71.69;100177.22;4788924;29;19921;-90
2021/08/28 01:32:39;;;;;;;;;;;;;;;15.15;71.74;100186.13;4788431;29;19924;-90
2021/08/28 01:35:06;;;;;;;;;;;;;;;15.14;71.97;100186.47;4803227;29;20021;-94
2021/08/28 01:37:34;;;;;;;;;;;;;;;15.14;71.90;100187.25;4787983;29;19929;-90
2021/08/28 01:40:27;;;;;;;;;;;;;;;15.13;71.73;100191.16;4791318;29;20422;-90
2021/08/28 01:42:59;;;;;;;;;;;;;;;15.13;71.72;100187.56;4802992;29;19932;-91
2021/08/28 01:45:26;;;;;;;;;;;;;;;15.12;71.71;100183.19;4788247;29;19925;-90
2021/08/28 01:47:57;;;;;;;;;;;;;;;15.07;71.77;100183.38;4787964;29;19960;-91
2021/08/28 01:50:24;;;;;;;;;;;;;;;15.05;71.81;100178.16;4773371;29;19935;-91
2021/08/28 01:52:56;;;;;;;;;;;;;;;15.07;71.84;100181.44;4788209;29;20422;-91
2021/08/28 01:55:26;;;;;;;;;;;;;;;15.11;71.54;100185.16;4788111;29;19925;-90
2021/08/28 01:57:59;;;;;;;;;;;;;;;15.05;71.96;100178.16;4787897;29;19924;-91
2021/08/28 02:00:44;;;;;;;;;;;;;;;15.01;71.61;100183.50;4849606;29;19928;-90
2021/08/28 02:03:13;;;;;;;;;;;;;;;15.01;71.63;100186.25;4863656;29;19924;-90
2021/08/28 02:05:41;;;;;;;;;;;;;;;15.03;71.72;100186.75;4880720;29;19930;-90
2021/08/28 02:08:16;;;;;;;;;;;;;;;15.04;71.44;100188.38;4864895;29;20351;-91
2021/08/28 02:10:51;;;;;;;;;;;;;;;15.01;71.71;100193.72;4880700;29;19928;-90
2021/08/28 02:13:24;;;;;;;;;;;;;;;14.95;71.87;100183.97;4864791;29;19924;-90
2021/08/28 02:15:53;;;;;;;;;;;;;;;14.95;71.71;100186.75;4864972;29;20302;-91
2021/08/28 02:18:20;;;;;;;;;;;;;;;14.93;71.61;100183.47;4849482;29;20297;-91
2021/08/28 02:21:06;;;;;;;;;;;;;;;14.93;71.55;100189.00;4880377;29;19927;-90
2021/08/28 02:23:38;;;;;;;;;;;;;;;14.93;71.63;100187.06;4880257;29;19924;-90
2021/08/28 02:26:31;;;;;;;;;;;;;;;14.89;71.67;100185.25;4880955;29;19971;-91
2021/08/28 02:29:00;;;;;;;;;;;;;;;14.87;71.49;100185.59;4880261;29;19975;-90
2021/08/28 02:31:30;;;;;;;;;;;;;;;14.89;71.70;100188.00;4880520;29;19931;-92
2021/08/28 02:34:01;;;;;;;;;;;;;;;14.88;71.27;100192.72;4864623;29;19930;-90
2021/08/28 02:36:27;;;;;;;;;;;;;;;14.88;71.27;100195.47;4880088;29;19935;-90
2021/08/28 02:38:54;;;;;;;;;;;;;;;14.86;71.56;100192.22;4881229;29;20147;-95
2021/08/28 02:41:21;;;;;;;;;;;;;;;14.78;71.70;100190.25;4864389;29;19930;-91
2021/08/28 02:43:47;;;;;;;;;;;;;;;14.73;71.74;100196.72;4864406;29;19924;-92
2021/08/28 02:46:15;;;;;;;;;;;;;;;14.64;72.09;100198.66;4864610;29;20413;-92
2021/08/28 02:48:41;;;;;;;;;;;;;;;14.61;72.10;100196.53;4864335;29;19924;-92
2021/08/28 02:51:10;;;;;;;;;;;;;;;14.62;72.15;100200.09;4864237;29;19923;-92
2021/08/28 02:53:42;;;;;;;;;;;;;;;14.60;72.05;100197.63;4879710;29;19983;-95
2021/08/28 02:56:11;;;;;;;;;;;;;;;14.60;72.14;100202.34;4879682;29;19962;-91
2021/08/28 02:58:37;;;;;;;;;;;;;;;14.55;72.39;100195.03;4881244;29;20374;-91
2021/08/28 03:01:05;;;;;;;;;;;;;;;14.54;72.64;100204.44;4880446;29;19927;-91
2021/08/28 03:03:32;;;;;;;;;;;;;;;14.49;72.98;100212.78;4879587;29;19920;-92
2021/08/28 03:05:59;;;;;;;;;;;;;;;14.49;72.62;100204.53;4848997;29;19923;-91
2021/08/28 03:08:30;;;;;;;;;;;;;;;14.46;73.38;100205.97;4864931;29;19924;-95
2021/08/28 03:10:56;;;;;;;;;;;;;;;14.40;73.10;100215.50;4879576;29;19927;-92
2021/08/28 03:13:22;;;;;;;;;;;;;;;14.38;73.05;100205.94;4879154;29;19924;-92
2021/08/28 03:15:50;;;;;;;;;;;;;;;14.41;72.92;100216.31;4864000;29;19919;-92
2021/08/28 03:18:18;;;;;;;;;;;;;;;14.37;73.16;100218.91;4879347;29;20424;-92
2021/08/28 03:20:49;;;;;;;;;;;;;;;14.43;72.94;100217.59;4879389;29;19967;-91
2021/08/28 03:23:19;;;;;;;;;;;;;;;14.46;72.86;100211.47;4864027;29;19923;-92
2021/08/28 03:25:47;;;;;;;;;;;;;;;14.49;72.64;100213.59;4879290;29;20032;-92
2021/08/28 03:28:14;;;;;;;;;;;;;;;14.49;72.11;100212.78;4848539;29;20002;-92
2021/08/28 03:30:42;;;;;;;;;;;;;;;14.51;71.90;100216.06;4879254;29;19971;-92
2021/08/28 03:33:08;;;;;;;;;;;;;;;14.54;71.67;100213.50;4848558;29;20014;-91
2021/08/28 03:35:36;;;;;;;;;;;;;;;14.50;70.97;100219.91;4880106;29;19924;-91
2021/08/28 03:38:03;;;;;;;;;;;;;;;14.55;71.11;100214.31;4879062;29;20067;-92
2021/08/28 03:40:29;;;;;;;;;;;;;;;14.63;70.97;100221.78;4879162;29;19930;-94
2021/08/28 03:42:55;;;;;;;;;;;;;;;14.65;70.55;100218.72;4863493;29;19924;-92
2021/08/28 03:45:26;;;;;;;;;;;;;;;14.68;70.66;100221.63;4879045;29;19962;-92
2021/08/28 03:47:54;;;;;;;;;;;;;;;14.73;70.34;100220.66;4863490;29;19927;-91
2021/08/28 03:50:20;;;;;;;;;;;;;;;14.75;70.14;100215.66;4863552;29;20377;-92
2021/08/28 03:52:52;;;;;;;;;;;;;;;14.74;70.13;100219.56;4894206;29;20371;-91
2021/08/28 03:55:19;;;;;;;;;;;;;;;14.78;70.06;100221.34;4863409;29;19924;-95
2021/08/28 03:57:45;;;;;;;;;;;;;;;14.82;69.22;100216.00;4863126;29;19930;-92
2021/08/28 04:00:11;;;;;;;;;;;;;;;14.87;69.17;100213.13;4863030;29;19924;-92
2021/08/28 04:03:04;;;;;;;;;;;;;;;14.88;68.65;100213.94;4878617;29;20026;-91
2021/08/28 04:05:31;;;;;;;;;;;;;;;14.94;68.54;100216.22;4878443;29;19924;-92
2021/08/28 04:08:09;;;;;;;;;;;;;;;14.97;68.75;100223.03;4864691;29;19979;-91
2021/08/28 04:10:44;;;;;;;;;;;;;;;14.97;67.72;100226.59;4864223;29;19927;-92
2021/08/28 04:13:13;;;;;;;;;;;;;;;15.06;67.36;100236.81;4878682;29;20402;-92
2021/08/28 04:15:38;;;;;;;;;;;;;;;15.13;67.47;100235.22;4862976;29;19923;-92
2021/08/28 04:18:16;;;;;;;;;;;;;;;15.20;67.36;100240.25;4878445;29;19962;-94
2021/08/28 04:20:47;;;;;;;;;;;;;;;15.23;67.00;100234.06;4878417;29;19923;-95
2021/08/28 04:23:22;;;;;;;;;;;;;;;15.27;67.54;100229.56;4862630;29;19924;-92
2021/08/28 04:26:18;;;;;;;;;;;;;;;15.37;67.29;100243.03;4843977;29;20022;-94
2021/08/28 04:28:44;;;;;;;;;;;;;;;15.39;66.53;100221.47;4862743;29;19934;-93
2021/08/28 04:31:10;;;;;;;;;;;;;;;15.42;66.82;100231.03;4862607;29;20376;-92
2021/08/28 04:33:37;;;;;;;;;;;;;;;15.43;66.85;100227.13;4863040;29;20408;-92
2021/08/28 04:36:03;;;;;;;;;;;;;;;15.47;67.24;100225.38;4878210;29;19923;-93
2021/08/28 04:38:30;;;;;;;;;;;;;;;15.40;66.83;100222.31;4877809;29;19971;-92
2021/08/28 04:40:57;;;;;;;;;;;;;;;15.32;66.94;100221.13;4862662;29;19927;-92
2021/08/28 04:43:26;;;;;;;;;;;;;;;15.31;67.26;100224.22;4862305;29;19923;-91
2021/08/28 04:46:17;;;;;;;;;;;;;;;15.31;66.63;100229.75;4876324;29;19981;-92
2021/08/28 04:48:48;;;;;;;;;;;;;;;15.21;67.11;100231.66;4863615;29;19924;-94
2021/08/28 04:51:39;;;;;;;;;;;;;;;15.16;66.56;100225.47;4855616;29;19932;-92
2021/08/28 04:54:08;;;;;;;;;;;;;;;15.12;66.68;100222.56;4877752;29;19924;-92
2021/08/28 04:56:35;;;;;;;;;;;;;;;15.08;67.56;100227.09;4846697;29;19924;-92
2021/08/28 04:59:04;;;;;;;;;;;;;;;15.14;66.96;100222.25;4878164;29;19928;-91
2021/08/28 05:01:45;;;;;;;;;;;;;;;15.10;67.28;100227.59;4864036;29;19979;-91
2021/08/28 05:04:14;;;;;;;;;;;;;;;15.11;67.68;100222.91;4878924;29;20018;-92
2021/08/28 05:06:40;;;;;;;;;;;;;;;15.01;67.91;100226.75;4862143;29;19924;-91
2021/08/28 05:09:10;;;;;;;;;;;;;;;14.98;67.69;100222.69;4863081;29;19941;-91
2021/08/28 05:11:37;;;;;;;;;;;;;;;15.00;67.50;100219.66;4862519;29;19931;-95
2021/08/28 05:14:04;;;;;;;;;;;;;;;15.04;67.22;100223.38;4877716;29;19927;-93
2021/08/28 05:16:30;;;;;;;;;;;;;;;15.11;66.61;100220.16;4862267;29;20082;-93
2021/08/28 05:18:55;;;;;;;;;;;;;;;15.14;67.41;100227.78;4877540;29;20445;-93
2021/08/28 05:21:25;;;;;;;;;;;;;;;15.21;67.22;100223.41;4861690;29;20035;-93
2021/08/28 05:24:18;;;;;;;;;;;;;;;15.24;66.92;100222.75;4849882;29;20011;-90
2021/08/28 05:26:48;;;;;;;;;;;;;;;15.27;66.56;100226.81;4862135;29;19923;-91
2021/08/28 05:29:14;;;;;;;;;;;;;;;15.30;66.18;100217.06;4863149;29;20601;-91
2021/08/28 05:31:40;;;;;;;;;;;;;;;15.37;66.48;100229.25;4878587;29;19924;-93
2021/08/28 05:34:09;;;;;;;;;;;;;;;15.50;66.29;100239.31;4878540;29;19924;-91
2021/08/28 05:36:56;;;;;;;;;;;;;;;15.61;65.90;100231.53;4845015;29;19967;-95
2021/08/28 05:39:41;;;;;;;;;;;;;;;15.68;65.01;100231.06;4880365;29;20018;-90
2021/08/28 05:42:08;;;;;;;;;;;;;;;15.78;65.43;100228.00;4879601;29;19924;-91
2021/08/28 05:44:33;;;;;;;;;;;;;;;15.83;64.29;100227.03;4890048;29;19935;-91
2021/08/28 05:46:59;;;;;;;;;;;;;;;15.83;64.08;100230.59;4871049;29;20381;-95
2021/08/28 05:49:25;;;;;;;;;;;;;;;15.90;64.43;100222.63;4850599;29;19924;-94
2021/08/28 05:52:00;;;;;;;;;;;;;;;15.95;64.68;100216.13;4880279;29;20331;-92
2021/08/28 05:54:27;;;;;;;;;;;;;;;16.04;64.63;100210.59;4865631;29;19924;-92
2021/08/28 05:56:53;;;;;;;;;;;;;;;16.10;63.94;100221.13;4881837;29;20386;-94
2021/08/28 05:59:20;;;;;;;;;;;;;;;16.15;64.16;100218.19;4878775;29;19979;-94
2021/08/28 06:01:47;;;;;;;;;;;;;;;16.16;63.38;100211.56;4868886;29;20417;-95
2021/08/28 06:04:13;;;;;;;;;;;;;;;16.11;62.81;100213.66;4872790;29;20205;-92
2021/08/28 06:06:57;;;;;;;;;;;;;;;16.07;63.26;100213.53;4867611;29;19972;-93
2021/08/28 06:09:42;;;;;;;;;;;;;;;16.07;63.34;100210.75;4874879;29;20147;-92
2021/08/28 06:12:28;;;;;;;;;;;;;;;16.16;63.74;100208.00;4832545;29;19931;-94
2021/08/28 06:15:15;;;;;;;;;;;;;;;16.27;63.61;100206.50;4892443;29;19976;-90
2021/08/28 06:17:47;;;;;;;;;;;;;;;16.25;63.33;100196.91;4877557;29;19930;-92
2021/08/28 06:20:14;;;;;;;;;;;;;;;16.27;63.45;100202.94;4904005;29;19937;-87
2021/08/28 06:22:40;;;;;;;;;;;;;;;16.34;63.80;100206.78;4889904;29;20006;-94
2021/08/28 06:25:08;;;;;;;;;;;;;;;16.42;63.91;100203.19;4891329;29;19924;-87
2021/08/28 06:27:35;;;;;;;;;;;;;;;16.65;63.71;100206.53;4877798;29;19970;-88
2021/08/28 06:30:06;;;;;;;;;;;;;;;16.82;62.47;100194.59;4894190;29;19927;-84
2021/08/28 06:32:34;;;;;;;;;;;;;;;16.93;61.91;100203.31;4891063;29;19935;-87
2021/08/28 06:35:00;;;;;;;;;;;;;;;17.01;61.19;100196.91;4868269;29;19919;-88
2021/08/28 06:37:35;;;;;;;;;;;;;;;17.12;61.50;100195.41;4878886;29;19931;-88
2021/08/28 06:40:19;;;;;;;;;;;;;;;17.23;60.92;100197.75;4879137;29;20068;-89
2021/08/28 06:43:04;;;;;;;;;;;;;;;17.29;61.28;100201.94;4881275;29;20044;-89
2021/08/28 06:45:49;;;;;;;;;;;;;;;17.46;60.95;100189.94;4877849;29;19971;-86
2021/08/28 06:48:50;;;;;;;;;;;;;;;17.68;60.59;100191.53;4838242;29;19925;-86
2021/08/28 06:51:45;;;;;;;;;;;;;;;17.82;59.77;100192.09;4875745;29;19962;-89
2021/08/28 06:54:49;;;;;;;;;;;;;;;17.87;58.59;100180.00;4846205;29;20394;-86
2021/08/28 06:57:34;;;;;;;;;;;;;;;18.01;59.06;100186.84;4874318;29;19962;-85
2021/08/28 07:00:20;;;;;;;;;;;;;;;18.17;57.62;100191.72;4879577;29;19923;-87
2021/08/28 07:03:15;;;;;;;;;;;;;;;18.19;57.35;100189.44;4838965;29;19940;-87
2021/08/28 07:05:43;;;;;;;;;;;;;;;18.25;56.29;100190.84;4883111;29;20296;-88
2021/08/28 07:08:22;;;;;;;;;;;;;;;18.34;56.29;100194.28;4878400;29;20011;-84
2021/08/28 07:10:49;;;;;;;;;;;;;;;18.41;55.87;100186.25;4878302;29;20297;-84
2021/08/28 07:13:15;;;;;;;;;;;;;;;18.51;55.82;100183.03;4877418;29;19923;-82
2021/08/28 07:15:41;;;;;;;;;;;;;;;18.61;55.95;100184.53;4877539;29;20385;-85
2021/08/28 07:18:13;;;;;;;;;;;;;;;18.66;55.65;100172.41;4876987;29;20014;-83
2021/08/28 07:20:40;;;;;;;;;;;;;;;18.70;54.93;100173.31;4873727;29;19923;-88
2021/08/28 07:23:06;;;;;;;;;;;;;;;18.76;55.36;100160.88;4877840;29;19931;-86
2021/08/28 07:26:01;;;;;;;;;;;;;;;18.85;54.42;100158.00;4870505;29;20420;-85
2021/08/28 07:28:29;;;;;;;;;;;;;;;18.89;54.68;100173.56;4878614;29;20325;-85
2021/08/28 07:31:05;;;;;;;;;;;;;;;18.94;54.81;100175.28;4880473;29;19934;-89
2021/08/28 07:33:33;;;;;;;;;;;;;;;18.92;55.21;100169.31;4884668;29;19919;-85
2021/08/28 07:35:59;;;;;;;;;;;;;;;18.96;55.53;100173.78;4894948;29;19931;-91
2021/08/28 07:38:25;;;;;;;;;;;;;;;18.98;55.20;100185.34;4887261;29;19923;-86
2021/08/28 07:40:53;;;;;;;;;;;;;;;19.01;53.86;100168.03;4861239;29;19931;-87
2021/08/28 07:43:23;;;;;;;;;;;;;;;19.08;54.08;100174.94;4876310;29;19923;-87
2021/08/28 07:45:55;;;;;;;;;;;;;;;19.10;53.88;100172.63;4877200;29;19953;-87
2021/08/28 07:48:27;;;;;;;;;;;;;;;19.14;54.12;100162.44;4862749;29;20335;-87
2021/08/28 07:50:54;;;;;;;;;;;;;;;19.17;54.59;100167.28;4880837;29;20011;-81
2021/08/28 07:53:20;;;;;;;;;;;;;;;19.24;54.02;100167.53;4879732;29;20544;-86
2021/08/28 07:55:52;;;;;;;;;;;;;;;19.20;53.58;100161.88;4879022;29;20425;-84
2021/08/28 07:58:18;;;;;;;;;;;;;;;19.12;54.16;100160.03;4877532;29;20010;-91
2021/08/28 08:00:44;;;;;;;;;;;;;;;19.14;54.37;100162.44;4846408;29;19928;-87
2021/08/28 08:03:10;;;;;;;;;;;;;;;19.18;54.39;100166.16;4877516;29;19972;-88
2021/08/28 08:06:12;;;;;;;;;;;;;;;19.31;55.12;100169.69;4810786;29;19957;-93
2021/08/28 08:08:57;;;;;;;;;;;;;;;19.29;54.38;100170.03;4866085;29;19980;-87
2021/08/28 08:11:41;;;;;;;;;;;;;;;19.26;53.58;100165.19;4877460;29;19924;-85
2021/08/28 08:14:26;;;;;;;;;;;;;;;19.34;53.93;100166.22;4878695;29;19972;-90
2021/08/28 08:17:13;;;;;;;;;;;;;;;19.41;54.00;100164.47;4878749;29;19988;-87
2021/08/28 08:19:51;;;;;;;;;;;;;;;19.50;54.54;100164.28;4877125;29;19979;-94
2021/08/28 08:22:35;;;;;;;;;;;;;;;19.60;53.88;100154.66;4878614;29;19923;-89
2021/08/28 08:25:22;;;;;;;;;;;;;;;19.69;53.98;100160.91;4877976;29;20273;-84
2021/08/28 08:28:17;;;;;;;;;;;;;;;19.77;53.50;100165.50;4826713;29;19968;-82
2021/08/28 08:31:06;;;;;;;;;;;;;;;19.83;53.12;100161.28;4878237;29;19927;-83
2021/08/28 08:33:31;;;;;;;;;;;;;;;19.86;53.00;100160.59;4877235;29;19963;-94
2021/08/28 08:35:58;;;;;;;;;;;;;;;19.89;51.90;100156.28;4861756;29;19923;-88
2021/08/28 08:38:24;;;;;;;;;;;;;;;19.89;52.01;100164.63;4877350;29;20030;-90
2021/08/28 08:40:50;;;;;;;;;;;;;;;19.82;51.63;100154.13;4877664;29;19930;-89
2021/08/28 08:43:16;;;;;;;;;;;;;;;19.76;51.99;100161.09;4877165;29;19923;-82
2021/08/28 08:45:44;;;;;;;;;;;;;;;19.77;52.34;100159.97;4877299;29;19927;-84
2021/08/28 08:48:11;;;;;;;;;;;;;;;19.85;51.83;100153.44;4876667;29;19927;-83
2021/08/28 08:50:37;;;;;;;;;;;;;;;19.91;51.52;100162.31;4867431;29;19920;-81
2021/08/28 08:53:07;;;;;;;;;;;;;;;19.97;51.73;100157.28;4880106;29;19924;-84
2021/08/28 08:55:36;;;;;;;;;;;;;;;20.01;51.32;100150.69;4880720;29;20350;-93
2021/08/28 08:58:03;;;;;;;;;;;;;;;20.00;50.97;100143.53;4874190;29;19992;-81
2021/08/28 09:00:31;;;;;;;;;;;;;;;20.01;51.69;100141.56;4879298;29;19972;-94
2021/08/28 09:03:21;;;;;;;;;;;;;;;19.99;51.77;100132.78;4847613;29;20026;-79
2021/08/28 09:05:56;;;;;;;;;;;;;;;19.92;51.31;100136.97;4877356;29;19930;-82
2021/08/28 09:08:27;;;;;;;;;;;;;;;20.04;52.03;100133.31;4889388;29;19924;-94
2021/08/28 09:10:52;;;;;;;;;;;;;;;20.07;52.17;100131.81;4885324;29;19923;-93
2021/08/28 09:13:19;;;;;;;;;;;;;;;20.03;52.49;100131.69;4890894;29;19931;-95
2021/08/28 09:15:46;;;;;;;;;;;;;;;20.07;52.67;100120.72;4891245;29;19934;-95
2021/08/28 09:18:13;;;;;;;;;;;;;;;20.03;51.34;100125.34;4897411;29;20010;-86
2021/08/28 09:20:38;;;;;;;;;;;;;;;20.04;51.50;100113.09;4897010;29;19907;-85
2021/08/28 09:23:07;;;;;;;;;;;;;;;20.12;52.24;100107.34;4907997;29;19923;-82
2021/08/28 09:25:33;;;;;;;;;;;;;;;20.16;53.69;100111.03;4876493;29;19924;-93
2021/08/28 09:27:59;;;;;;;;;;;;;;;20.21;51.17;100109.16;4895410;29;20453;-80
2021/08/28 09:30:33;;;;;;;;;;;;;;;20.22;52.09;100105.19;4892168;29;20018;-81
2021/08/28 09:33:02;;;;;;;;;;;;;;;20.24;52.32;100102.88;4896893;29;20030;-96
2021/08/28 09:35:29;;;;;;;;;;;;;;;20.29;51.40;100097.84;4895952;29;20469;-81
2021/08/28 09:38:00;;;;;;;;;;;;;;;20.34;51.07;100094.00;4896389;29;19930;-94
2021/08/28 09:40:28;;;;;;;;;;;;;;;20.32;50.88;100102.69;4890416;29;19924;-80
2021/08/28 09:42:56;;;;;;;;;;;;;;;20.30;50.97;100095.91;4892206;29;20517;-80
2021/08/28 09:45:23;;;;;;;;;;;;;;;20.36;50.93;100100.00;4889069;29;19970;-81
2021/08/28 09:47:49;;;;;;;;;;;;;;;20.46;50.52;100093.88;4896086;29;19924;-85
2021/08/28 09:50:29;;;;;;;;;;;;;;;20.51;51.17;100103.97;4886605;29;20010;-91
2021/08/28 09:53:16;;;;;;;;;;;;;;;20.55;52.52;100110.41;4894307;29;19927;-95
2021/08/28 09:55:42;;;;;;;;;;;;;;;20.65;51.00;100105.09;4882346;29;20022;-93
2021/08/28 09:58:08;;;;;;;;;;;;;;;20.56;49.29;100100.91;4891995;29;19931;-93
2021/08/28 10:00:41;;;;;;;;;;;;;;;20.62;50.15;100102.22;4889345;29;19928;-90
2021/08/28 10:03:07;;;;;;;;;;;;;;;20.72;50.39;100098.09;4902554;29;19924;-94
2021/08/28 10:05:37;;;;;;;;;;;;;;;20.77;49.32;100098.63;4886647;29;19964;-90
2021/08/28 10:08:06;;;;;;;;;;;;;;;20.83;49.52;100108.28;4891043;29;19935;-78
2021/08/28 10:10:33;;;;;;;;;;;;;;;20.79;49.19;100098.25;4879484;29;19934;-80
2021/08/28 10:12:59;;;;;;;;;;;;;;;20.86;49.96;100095.63;4893373;29;20047;-87
2021/08/28 10:15:26;;;;;;;;;;;;;;;20.92;48.91;100098.94;4893335;29;19988;-85
2021/08/28 10:17:53;;;;;;;;;;;;;;;20.85;48.67;100103.16;4909128;29;19969;-91
2021/08/28 10:20:21;;;;;;;;;;;;;;;20.91;48.22;100100.09;4900537;29;19956;-77
2021/08/28 10:22:48;;;;;;;;;;;;;;;20.94;48.20;100104.94;4882589;29;20015;-91
2021/08/28 10:25:16;;;;;;;;;;;;;;;20.94;49.73;100108.53;4892107;29;19928;-85
2021/08/28 10:27:44;;;;;;;;;;;;;;;21.04;49.70;100110.72;4886575;29;19929;-83
2021/08/28 10:30:11;;;;;;;;;;;;;;;21.10;48.71;100105.69;4886977;29;19959;-94
2021/08/28 10:32:37;;;;;;;;;;;;;;;21.09;48.20;100106.84;4892335;29;19971;-88
2021/08/28 10:35:03;;;;;;;;;;;;;;;21.11;49.14;100113.66;4892321;29;19923;-82
2021/08/28 10:37:30;;;;;;;;;;;;;;;21.13;48.71;100116.09;4880238;29;20265;-90
2021/08/28 10:39:57;;;;;;;;;;;;;;;21.15;48.32;100105.38;4877839;29;19983;-89
2021/08/28 10:42:25;;;;;;;;;;;;;;;21.21;48.20;100103.13;4883520;29;19924;-91
2021/08/28 10:44:52;;;;;;;;;;;;;;;21.28;49.40;100106.84;4885901;29;19923;-83
2021/08/28 10:47:22;;;;;;;;;;;;;;;21.34;48.05;100097.06;4884267;29;19953;-91
2021/08/28 10:50:01;;;;;;;;;;;;;;;21.30;48.27;100092.59;4882097;29;19989;-87
2021/08/28 10:52:28;;;;;;;;;;;;;;;21.30;47.70;100093.41;4887283;29;19923;-90
2021/08/28 10:54:53;;;;;;;;;;;;;;;21.28;48.26;100087.38;4888387;29;20009;-93
2021/08/28 10:57:25;;;;;;;;;;;;;;;21.27;48.75;100087.75;4881732;29;20018;-92
2021/08/28 11:00:01;;;;;;;;;;;;;;;21.35;49.44;100078.41;4885761;29;19930;-86
2021/08/28 11:02:48;;;;;;;;;;;;;;;21.48;48.26;100092.97;4887191;29;19925;-91
2021/08/28 11:05:15;;;;;;;;;;;;;;;21.58;48.09;100081.25;4902102;29;19974;-86
2021/08/28 11:07:44;;;;;;;;;;;;;;;21.70;47.81;100088.63;4884515;29;19979;-91
2021/08/28 11:10:12;;;;;;;;;;;;;;;21.63;47.07;100082.94;4880905;29;20533;-86
2021/08/28 11:12:41;;;;;;;;;;;;;;;21.69;47.68;100085.03;4881189;29;19976;-84
2021/08/28 11:15:30;;;;;;;;;;;;;;;21.71;47.93;100079.91;4890858;29;19923;-79
2021/08/28 11:17:57;;;;;;;;;;;;;;;21.80;46.36;100080.47;4877179;29;19924;-79
2021/08/28 11:20:26;;;;;;;;;;;;;;;21.87;46.78;100070.63;4885573;29;20370;-87
2021/08/28 11:22:52;;;;;;;;;;;;;;;21.92;46.51;100073.09;4894756;29;19919;-86
2021/08/28 11:25:20;;;;;;;;;;;;;;;22.00;46.74;100074.84;4893900;29;19988;-86
2021/08/28 11:27:47;;;;;;;;;;;;;;;22.03;47.34;100062.97;4879910;29;19924;-81
2021/08/28 11:30:14;;;;;;;;;;;;;;;22.02;46.81;100069.72;4885332;29;19923;-83
2021/08/28 11:32:58;;;;;;;;;;;;;;;22.05;46.94;100066.16;4881440;29;19953;-81
2021/08/28 11:35:29;;;;;;;;;;;;;;;22.09;46.80;100067.06;4885696;29;20429;-94
2021/08/28 11:38:03;;;;;;;;;;;;;;;21.97;46.95;100058.88;4878984;29;20404;-85
2021/08/28 11:40:32;;;;;;;;;;;;;;;21.96;47.67;100051.72;4887378;29;19935;-84
2021/08/28 11:42:58;;;;;;;;;;;;;;;22.04;46.97;100057.00;4898199;29;19923;-83
2021/08/28 11:45:32;;;;;;;;;;;;;;;22.19;47.40;100054.50;4898339;29;19933;-84
2021/08/28 11:47:59;;;;;;;;;;;;;;;22.24;46.20;100056.97;4881574;29;20577;-92
2021/08/28 11:50:31;;;;;;;;;;;;;;;22.17;45.29;100054.88;4862325;29;19950;-87
2021/08/28 11:52:57;;;;;;;;;;;;;;;22.12;45.91;100059.91;4860098;29;19982;-87
2021/08/28 11:55:23;;;;;;;;;;;;;;;22.08;46.92;100048.72;4844796;29;19959;-81
2021/08/28 11:58:02;;;;;;;;;;;;;;;22.18;47.03;100050.09;4878025;29;19930;-88
2021/08/28 12:00:29;;;;;;;;;;;;;;;22.27;45.39;100054.22;4893393;29;20383;-85
2021/08/28 12:02:56;;;;;;;;;;;;;;;22.36;46.02;100047.59;4877695;29;20026;-84
2021/08/28 12:05:24;;;;;;;;;;;;;;;22.35;45.32;100045.97;4877552;29;19959;-83
2021/08/28 12:07:53;;;;;;;;;;;;;;;22.28;45.90;100039.16;4878744;29;19987;-83
2021/08/28 12:10:19;;;;;;;;;;;;;;;22.31;45.81;100045.94;4876788;29;19957;-86
2021/08/28 12:12:52;;;;;;;;;;;;;;;22.27;46.01;100034.75;4880879;29;19975;-87
2021/08/28 12:15:21;;;;;;;;;;;;;;;22.08;45.30;100039.56;4878755;29;20373;-87
2021/08/28 12:17:48;;;;;;;;;;;;;;;22.09;44.78;100028.06;4878331;29;19927;-92
2021/08/28 12:20:16;;;;;;;;;;;;;;;22.18;45.88;100028.63;4876933;29;19934;-85
2021/08/28 12:22:51;;;;;;;;;;;;;;;22.29;45.75;100034.38;4879901;29;19966;-88
2021/08/28 12:25:17;;;;;;;;;;;;;;;22.37;44.99;100038.06;4883934;29;19923;-87
2021/08/28 12:27:45;;;;;;;;;;;;;;;22.54;44.85;100040.31;4879049;29;19941;-86
2021/08/28 12:30:10;;;;;;;;;;;;;;;22.68;44.17;100036.91;4865199;29;19930;-86
2021/08/28 12:32:36;;;;;;;;;;;;;;;22.74;44.74;100035.41;4895012;29;19924;-91
2021/08/28 12:35:02;;;;;;;;;;;;;;;22.73;44.72;100028.22;4877285;29;20377;-92
2021/08/28 12:37:32;;;;;;;;;;;;;;;22.79;46.38;100031.50;4884843;29;20373;-88
2021/08/28 12:40:02;;;;;;;;;;;;;;;22.84;44.84;100031.16;4886591;29;19952;-89
2021/08/28 12:42:32;;;;;;;;;;;;;;;22.87;44.94;100024.81;4886784;29;20022;-85
2021/08/28 12:45:03;;;;;;;;;;;;;;;22.82;44.43;100028.75;4891831;29;20025;-89
2021/08/28 12:47:30;;;;;;;;;;;;;;;22.71;43.81;100022.22;4873862;29;19923;-88
2021/08/28 12:49:56;;;;;;;;;;;;;;;22.60;43.55;100015.72;4880612;29;20310;-86
2021/08/28 12:52:33;;;;;;;;;;;;;;;22.53;44.21;100013.63;4895326;29;19930;-87
2021/08/28 12:55:00;;;;;;;;;;;;;;;22.41;43.80;100011.06;4885641;29;19930;-89
2021/08/28 12:57:29;;;;;;;;;;;;;;;22.35;44.04;100006.97;4880695;29;19927;-87